sensor_id;sensor_type;location;lat;lon;timestamp;pressure;altitude;pressure_sealevel;temperature;humidity
78932;BME280;68331;53.362;55.932;2023-10-13T00:00:34;100162.75;;;4.75;68.54
78932;BME280;68331;53.362;55.932;2023-10-13T00:03:04;100161.88;;;4.78;68.33
78932;BME280;68331;53.362;55.932;2023-10-13T00:05:32;100147.97;;;4.82;68.10
78932;BME280;68331;53.362;55.932;2023-10-13T00:08:03;100145.31;;;4.85;67.73
78932;BME280;68331;53.362;55.932;2023-10-13T00:10:30;100132.25;;;4.86;67.61
78932;BME280;68331;53.362;55.932;2023-10-13T00:12:56;100128.75;;;4.87;67.54
78932;BME280;68331;53.362;55.932;2023-10-13T00:15:52;100125.22;;;4.93;67.26
78932;BME280;68331;53.362;55.932;2023-10-13T00:18:18;100130.47;;;4.95;66.82
78932;BME280;68331;53.362;55.932;2023-10-13T00:20:45;100119.97;;;5.01;66.53
78932;BME280;68331;53.362;55.932;2023-10-13T00:23:16;100112.09;;;5.07;66.43
78932;BME280;68331;53.362;55.932;2023-10-13T00:25:50;100109.47;;;5.10;65.97
78932;BME280;68331;53.362;55.932;2023-10-13T00:28:26;100118.16;;;5.10;66.01
78932;BME280;68331;53.362;55.932;2023-10-13T00:31:01;100119.94;;;5.08;66.01
78932;BME280;68331;53.362;55.932;2023-10-13T00:33:38;100117.31;;;5.07;65.89
78932;BME280;68331;53.362;55.932;2023-10-13T00:36:05;100117.31;;;5.08;65.94
78932;BME280;68331;53.362;55.932;2023-10-13T00:38:33;100117.31;;;5.07;66.02
78932;BME280;68331;53.362;55.932;2023-10-13T00:41:01;100101.66;;;5.05;65.65
78932;BME280;68331;53.362;55.932;2023-10-13T00:43:50;100102.53;;;5.03;65.80
78932;BME280;68331;53.362;55.932;2023-10-13T00:46:35;100112.13;;;4.99;65.80
78932;BME280;68331;53.362;55.932;2023-10-13T00:49:03;100104.28;;;5.01;66.04
78932;BME280;68331;53.362;55.932;2023-10-13T00:51:34;100103.41;;;5.02;66.08
78932;BME280;68331;53.362;55.932;2023-10-13T00:54:02;100111.25;;;5.05;65.84
78932;BME280;68331;53.362;55.932;2023-10-13T00:56:33;100096.41;;;5.04;65.60
78932;BME280;68331;53.362;55.932;2023-10-13T00:59:00;100090.28;;;5.12;65.37
78932;BME280;68331;53.362;55.932;2023-10-13T01:01:29;100085.94;;;5.08;65.46
78932;BME280;68331;53.362;55.932;2023-10-13T01:03:58;100099.88;;;5.09;65.44
78932;BME280;68331;53.362;55.932;2023-10-13T01:06:29;100094.63;;;5.12;65.15
78932;BME280;68331;53.362;55.932;2023-10-13T01:11:24;100092.88;;;5.17;65.22
78932;BME280;68331;53.362;55.932;2023-10-13T01:13:50;100096.34;;;5.19;65.08
78932;BME280;68331;53.362;55.932;2023-10-13T01:16:20;100078.91;;;5.21;64.71
78932;BME280;68331;53.362;55.932;2023-10-13T01:18:53;100088.44;;;5.25;64.52
78932;BME280;68331;53.362;55.932;2023-10-13T01:21:19;100090.19;;;5.26;64.39
78932;BME280;68331;53.362;55.932;2023-10-13T01:23:46;100074.47;;;5.26;63.78
78932;BME280;68331;53.362;55.932;2023-10-13T01:26:14;100078.84;;;5.30;63.76
78932;BME280;68331;53.362;55.932;2023-10-13T01:28:43;100086.69;;;5.30;63.90
78932;BME280;68331;53.362;55.932;2023-10-13T01:31:17;100077.16;;;5.23;63.78
78932;BME280;68331;53.362;55.932;2023-10-13T01:34:03;100089.28;;;5.29;63.77
78932;BME280;68331;53.362;55.932;2023-10-13T01:36:29;100084.09;;;5.27;63.96
78932;BME280;68331;53.362;55.932;2023-10-13T01:39:01;100076.25;;;5.27;63.84
78932;BME280;68331;53.362;55.932;2023-10-13T01:41:27;100076.25;;;5.27;64.13
78932;BME280;68331;53.362;55.932;2023-10-13T01:43:57;100059.69;;;5.27;64.02
78932;BME280;68331;53.362;55.932;2023-10-13T01:46:23;100052.66;;;5.29;63.72
78932;BME280;68331;53.362;55.932;2023-10-13T01:48:49;100042.22;;;5.30;63.64
78932;BME280;68331;53.362;55.932;2023-10-13T01:51:20;100043.94;;;5.31;63.54
78932;BME280;68331;53.362;55.932;2023-10-13T01:53:49;100044.81;;;5.29;64.14
78932;BME280;68331;53.362;55.932;2023-10-13T01:56:22;100020.53;;;5.13;65.04
78932;BME280;68331;53.362;55.932;2023-10-13T01:58:55;100043.19;;;5.12;66.18
78932;BME280;68331;53.362;55.932;2023-10-13T02:01:21;100029.31;;;5.04;66.94
78932;BME280;68331;53.362;55.932;2023-10-13T02:03:55;100034.56;;;5.00;67.86
78932;BME280;68331;53.362;55.932;2023-10-13T02:06:29;100023.28;;;4.93;68.18
78932;BME280;68331;53.362;55.932;2023-10-13T02:09:03;99995.47;;;4.78;69.45
78932;BME280;68331;53.362;55.932;2023-10-13T02:11:43;100001.66;;;4.65;70.87
78932;BME280;68331;53.362;55.932;2023-10-13T02:14:13;100007.78;;;4.58;71.25
78932;BME280;68331;53.362;55.932;2023-10-13T02:16:43;100007.81;;;4.55;71.53
78932;BME280;68331;53.362;55.932;2023-10-13T02:19:12;100009.53;;;4.56;71.82
78932;BME280;68331;53.362;55.932;2023-10-13T02:21:41;100013.91;;;4.55;71.99
78932;BME280;68331;53.362;55.932;2023-10-13T02:24:11;100020.88;;;4.55;72.14
78932;BME280;68331;53.362;55.932;2023-10-13T02:26:44;100033.97;;;4.53;72.14
78932;BME280;68331;53.362;55.932;2023-10-13T02:29:10;100012.16;;;4.50;72.20
78932;BME280;68331;53.362;55.932;2023-10-13T02:31:40;100000.88;;;4.46;72.01
78932;BME280;68331;53.362;55.932;2023-10-13T02:34:06;100006.09;;;4.46;72.26
78932;BME280;68331;53.362;55.932;2023-10-13T02:36:35;99993.94;;;4.43;71.90
78932;BME280;68331;53.362;55.932;2023-10-13T02:39:05;100004.41;;;4.43;71.83
78932;BME280;68331;53.362;55.932;2023-10-13T02:41:35;100012.22;;;4.45;71.91
78932;BME280;68331;53.362;55.932;2023-10-13T02:44:05;100008.72;;;4.45;71.85
78932;BME280;68331;53.362;55.932;2023-10-13T02:46:33;100013.97;;;4.45;71.65
78932;BME280;68331;53.362;55.932;2023-10-13T02:49:02;100006.09;;;4.48;71.69
78932;BME280;68331;53.362;55.932;2023-10-13T02:51:39;100009.56;;;4.47;71.90
78932;BME280;68331;53.362;55.932;2023-10-13T02:54:09;100019.16;;;4.48;71.48
78932;BME280;68331;53.362;55.932;2023-10-13T02:56:38;99998.28;;;4.48;71.22
78932;BME280;68331;53.362;55.932;2023-10-13T02:59:15;100021.75;;;4.49;71.04
78932;BME280;68331;53.362;55.932;2023-10-13T03:01:45;100024.38;;;4.54;70.89
78932;BME280;68331;53.362;55.932;2023-10-13T03:04:12;100040.00;;;4.58;70.96
78932;BME280;68331;53.362;55.932;2023-10-13T03:06:38;100038.22;;;4.65;70.46
78932;BME280;68331;53.362;55.932;2023-10-13T03:09:09;100030.41;;;4.66;70.56
78932;BME280;68331;53.362;55.932;2023-10-13T03:11:48;100029.53;;;4.69;70.29
78932;BME280;68331;53.362;55.932;2023-10-13T03:14:19;100039.09;;;4.70;70.32
78932;BME280;68331;53.362;55.932;2023-10-13T03:17:00;100019.91;;;4.73;70.42
78932;BME280;68331;53.362;55.932;2023-10-13T03:19:29;100018.16;;;4.73;70.18
78932;BME280;68331;53.362;55.932;2023-10-13T03:22:00;100021.66;;;4.74;70.27
78932;BME280;68331;53.362;55.932;2023-10-13T03:24:38;100027.75;;;4.74;70.29
78932;BME280;68331;53.362;55.932;2023-10-13T03:27:10;100031.22;;;4.75;70.51
78932;BME280;68331;53.362;55.932;2023-10-13T03:29:57;100032.94;;;4.77;70.23
78932;BME280;68331;53.362;55.932;2023-10-13T03:32:26;100023.38;;;4.79;70.45
78932;BME280;68331;53.362;55.932;2023-10-13T03:34:55;100023.34;;;4.81;70.49
78932;BME280;68331;53.362;55.932;2023-10-13T03:37:37;100052.09;;;4.84;70.23
78932;BME280;68331;53.362;55.932;2023-10-13T03:40:05;100059.03;;;4.86;69.84
78932;BME280;68331;53.362;55.932;2023-10-13T03:42:48;100052.97;;;4.83;69.61
78932;BME280;68331;53.362;55.932;2023-10-13T03:45:36;100053.84;;;4.83;69.97
78932;BME280;68331;53.362;55.932;2023-10-13T03:48:07;100041.63;;;4.81;70.35
78932;BME280;68331;53.362;55.932;2023-10-13T03:50:40;100039.91;;;4.83;70.80
78932;BME280;68331;53.362;55.932;2023-10-13T03:53:33;100023.34;;;4.85;70.70
78932;BME280;68331;53.362;55.932;2023-10-13T03:56:05;100006.78;;;4.83;70.75
78932;BME280;68331;53.362;55.932;2023-10-13T03:58:35;100018.94;;;4.90;70.94
78932;BME280;68331;53.362;55.932;2023-10-13T04:01:02;100028.50;;;4.95;70.59
78932;BME280;68331;53.362;55.932;2023-10-13T04:03:29;100045.00;;;5.03;70.78
78932;BME280;68331;53.362;55.932;2023-10-13T04:06:01;100048.50;;;5.05;70.35
78932;BME280;68331;53.362;55.932;2023-10-13T04:08:32;100054.56;;;5.08;70.25
78932;BME280;68331;53.362;55.932;2023-10-13T04:11:14;100063.22;;;5.17;70.23
78932;BME280;68331;53.362;55.932;2023-10-13T04:14:06;100077.97;;;5.25;69.48
78932;BME280;68331;53.362;55.932;2023-10-13T04:17:07;100084.03;;;5.36;69.51
78932;BME280;68331;53.362;55.932;2023-10-13T04:19:40;100084.00;;;5.43;69.02
78932;BME280;68331;53.362;55.932;2023-10-13T04:22:25;100088.25;;;5.51;68.77
78932;BME280;68331;53.362;55.932;2023-10-13T04:25:12;100085.66;;;5.51;68.43
78932;BME280;68331;53.362;55.932;2023-10-13T04:27:57;100078.66;;;5.56;68.24
78932;BME280;68331;53.362;55.932;2023-10-13T04:30:52;100094.28;;;5.64;67.72
78932;BME280;68331;53.362;55.932;2023-10-13T04:36:28;100088.88;;;5.87;65.36
78932;BME280;68331;53.362;55.932;2023-10-13T04:38:58;100090.59;;;5.94;65.33
78932;BME280;68331;53.362;55.932;2023-10-13T04:41:39;100087.06;;;5.97;64.88
78932;BME280;68331;53.362;55.932;2023-10-13T04:44:15;100086.19;;;5.96;64.48
78932;BME280;68331;53.362;55.932;2023-10-13T04:46:59;100091.38;;;6.01;64.02
78932;BME280;68331;53.362;55.932;2023-10-13T04:49:26;100095.72;;;6.05;63.98
78932;BME280;68331;53.362;55.932;2023-10-13T04:52:05;100097.41;;;6.09;63.79
78932;BME280;68331;53.362;55.932;2023-10-13T04:54:35;100083.47;;;6.07;63.68
78932;BME280;68331;53.362;55.932;2023-10-13T04:57:19;100071.22;;;6.09;63.48
78932;BME280;68331;53.362;55.932;2023-10-13T05:00:13;100064.25;;;6.08;63.64
78932;BME280;68331;53.362;55.932;2023-10-13T05:02:47;100053.78;;;6.08;63.65
78932;BME280;68331;53.362;55.932;2023-10-13T05:05:26;100060.75;;;6.08;63.35
78932;BME280;68331;53.362;55.932;2023-10-13T05:08:12;100047.63;;;6.09;63.04
78932;BME280;68331;53.362;55.932;2023-10-13T05:10:56;100052.81;;;6.17;62.74
78932;BME280;68331;53.362;55.932;2023-10-13T05:14:00;100050.09;;;6.24;62.59
78932;BME280;68331;53.362;55.932;2023-10-13T05:16:45;100054.41;;;6.28;62.43
78932;BME280;68331;53.362;55.932;2023-10-13T05:19:30;100051.81;;;6.27;62.39
78932;BME280;68331;53.362;55.932;2023-10-13T05:22:14;100055.34;;;6.26;62.08
78932;BME280;68331;53.362;55.932;2023-10-13T05:24:58;100074.50;;;6.28;62.23
78932;BME280;68331;53.362;55.932;2023-10-13T05:27:43;100073.66;;;6.27;62.11
78932;BME280;68331;53.362;55.932;2023-10-13T05:30:27;100069.31;;;6.25;62.15
78932;BME280;68331;53.362;55.932;2023-10-13T05:33:12;100083.19;;;6.36;62.03
78932;BME280;68331;53.362;55.932;2023-10-13T05:35:56;100085.69;;;6.45;61.68
78932;BME280;68331;53.362;55.932;2023-10-13T05:38:40;100083.94;;;6.44;61.04
78932;BME280;68331;53.362;55.932;2023-10-13T05:41:25;100082.22;;;6.43;61.26
78932;BME280;68331;53.362;55.932;2023-10-13T05:44:09;100088.31;;;6.45;60.95
78932;BME280;68331;53.362;55.932;2023-10-13T05:46:54;100069.94;;;6.47;61.35
78932;BME280;68331;53.362;55.932;2023-10-13T05:49:38;100085.59;;;6.53;60.79
78932;BME280;68331;53.362;55.932;2023-10-13T05:52:18;100083.81;;;6.58;60.52
78932;BME280;68331;53.362;55.932;2023-10-13T05:54:46;100078.53;;;6.60;60.68
78932;BME280;68331;53.362;55.932;2023-10-13T05:57:30;100078.44;;;6.66;60.55
78932;BME280;68331;53.362;55.932;2023-10-13T06:00:15;100077.53;;;6.70;60.63
78932;BME280;68331;53.362;55.932;2023-10-13T06:03:00;100088.00;;;6.70;60.32
78932;BME280;68331;53.362;55.932;2023-10-13T06:05:44;100081.06;;;6.67;60.62
78932;BME280;68331;53.362;55.932;2023-10-13T06:08:28;100086.31;;;6.66;60.60
78932;BME280;68331;53.362;55.932;2023-10-13T06:11:13;100079.28;;;6.71;60.33
78932;BME280;68331;53.362;55.932;2023-10-13T06:13:57;100075.78;;;6.69;60.42
78932;BME280;68331;53.362;55.932;2023-10-13T06:16:42;100078.41;;;6.69;60.10
78932;BME280;68331;53.362;55.932;2023-10-13T06:19:26;100072.34;;;6.67;60.26
78932;BME280;68331;53.362;55.932;2023-10-13T06:22:11;100065.38;;;6.64;60.25
78932;BME280;68331;53.362;55.932;2023-10-13T06:24:55;100067.09;;;6.67;60.07
78932;BME280;68331;53.362;55.932;2023-10-13T06:27:39;100048.69;;;6.70;60.15
78932;BME280;68331;53.362;55.932;2023-10-13T06:30:24;100060.84;;;6.75;60.05
78932;BME280;68331;53.362;55.932;2023-10-13T06:32:49;100068.72;;;6.77;60.25
78932;BME280;68331;53.362;55.932;2023-10-13T06:35:16;100062.56;;;6.78;59.63
78932;BME280;68331;53.362;55.932;2023-10-13T06:37:50;100060.84;;;6.75;59.91
78932;BME280;68331;53.362;55.932;2023-10-13T06:40:16;100061.72;;;6.78;59.75
78932;BME280;68331;53.362;55.932;2023-10-13T06:42:52;100058.19;;;6.80;59.78
78932;BME280;68331;53.362;55.932;2023-10-13T06:45:20;100059.94;;;6.78;59.81
78932;BME280;68331;53.362;55.932;2023-10-13T06:47:47;100062.59;;;6.77;59.56
78932;BME280;68331;53.362;55.932;2023-10-13T06:50:18;100063.50;;;6.74;59.68
78932;BME280;68331;53.362;55.932;2023-10-13T06:52:50;100066.16;;;6.71;59.39
78932;BME280;68331;53.362;55.932;2023-10-13T06:55:20;100063.50;;;6.74;59.10
78932;BME280;68331;53.362;55.932;2023-10-13T06:57:56;100067.84;;;6.77;58.90
78932;BME280;68331;53.362;55.932;2023-10-13T07:00:26;100060.88;;;6.72;58.89
78932;BME280;68331;53.362;55.932;2023-10-13T07:02:59;100060.84;;;6.75;58.82
78932;BME280;68331;53.362;55.932;2023-10-13T07:05:36;100066.88;;;6.84;58.95
78932;BME280;68331;53.362;55.932;2023-10-13T07:08:05;100056.38;;;6.84;58.75
78932;BME280;68331;53.362;55.932;2023-10-13T07:10:32;100059.84;;;6.87;58.75
78932;BME280;68331;53.362;55.932;2023-10-13T07:13:11;100050.25;;;6.86;58.52
78932;BME280;68331;53.362;55.932;2023-10-13T07:15:40;100046.69;;;6.89;58.73
78932;BME280;68331;53.362;55.932;2023-10-13T07:18:12;100050.16;;;6.91;58.62
78932;BME280;68331;53.362;55.932;2023-10-13T07:20:40;100051.88;;;6.92;58.40
78932;BME280;68331;53.362;55.932;2023-10-13T07:23:12;100051.94;;;6.90;58.57
78932;BME280;68331;53.362;55.932;2023-10-13T07:25:53;100033.66;;;6.84;58.68
78932;BME280;68331;53.362;55.932;2023-10-13T07:28:21;100041.41;;;6.92;58.37
78932;BME280;68331;53.362;55.932;2023-10-13T07:30:47;100049.25;;;6.92;58.50
78932;BME280;68331;53.362;55.932;2023-10-13T07:33:19;100039.59;;;6.95;58.42
78932;BME280;68331;53.362;55.932;2023-10-13T07:35:47;100038.72;;;6.96;58.58
78932;BME280;68331;53.362;55.932;2023-10-13T07:38:17;100031.69;;;7.00;58.57
78932;BME280;68331;53.362;55.932;2023-10-13T07:40:43;100035.16;;;7.02;58.43
78932;BME280;68331;53.362;55.932;2023-10-13T07:43:19;100032.59;;;6.97;58.46
78932;BME280;68331;53.362;55.932;2023-10-13T07:45:48;100021.19;;;7.00;58.74
78932;BME280;68331;53.362;55.932;2023-10-13T07:48:24;100028.19;;;6.99;58.70
78932;BME280;68331;53.362;55.932;2023-10-13T07:51:01;100029.91;;;7.01;58.92
78932;BME280;68331;53.362;55.932;2023-10-13T07:53:29;100025.53;;;7.01;58.79
78932;BME280;68331;53.362;55.932;2023-10-13T07:56:01;100024.66;;;7.02;59.18
78932;BME280;68331;53.362;55.932;2023-10-13T07:58:39;100018.53;;;7.02;59.29
78932;BME280;68331;53.362;55.932;2023-10-13T08:01:24;100018.47;;;7.06;59.27
78932;BME280;68331;53.362;55.932;2023-10-13T08:03:50;100013.19;;;7.09;58.95
78932;BME280;68331;53.362;55.932;2023-10-13T08:06:30;100008.03;;;7.03;59.27
78932;BME280;68331;53.362;55.932;2023-10-13T08:08:56;100015.00;;;7.04;59.39
78932;BME280;68331;53.362;55.932;2023-10-13T08:11:38;100006.19;;;7.08;59.50
78932;BME280;68331;53.362;55.932;2023-10-13T08:14:06;99999.16;;;7.10;59.47
78932;BME280;68331;53.362;55.932;2023-10-13T08:16:40;100009.75;;;7.06;59.71
78932;BME280;68331;53.362;55.932;2023-10-13T08:19:19;100001.06;;;7.02;59.67
78932;BME280;68331;53.362;55.932;2023-10-13T08:21:47;100017.69;;;6.99;59.79
78932;BME280;68331;53.362;55.932;2023-10-13T08:24:40;100017.78;;;6.93;59.92
78932;BME280;68331;53.362;55.932;2023-10-13T08:27:07;100023.94;;;6.92;60.03
78932;BME280;68331;53.362;55.932;2023-10-13T08:29:51;100014.31;;;6.91;60.39
78932;BME280;68331;53.362;55.932;2023-10-13T08:32:24;100011.69;;;6.93;60.47
78932;BME280;68331;53.362;55.932;2023-10-13T08:35:02;100009.94;;;6.92;60.71
78932;BME280;68331;53.362;55.932;2023-10-13T08:37:32;100000.41;;;6.85;62.00
78932;BME280;68331;53.362;55.932;2023-10-13T08:40:22;99998.00;;;6.69;63.57
78932;BME280;68331;53.362;55.932;2023-10-13T08:43:10;99992.88;;;6.62;64.19
78932;BME280;68331;53.362;55.932;2023-10-13T08:45:39;100015.59;;;6.61;64.26
78932;BME280;68331;53.362;55.932;2023-10-13T08:48:12;99999.91;;;6.58;64.10
78932;BME280;68331;53.362;55.932;2023-10-13T08:50:52;99995.47;;;6.65;64.11
78932;BME280;68331;53.362;55.932;2023-10-13T08:53:28;99978.88;;;6.64;63.85
78932;BME280;68331;53.362;55.932;2023-10-13T08:55:59;99982.31;;;6.66;63.78
78932;BME280;68331;53.362;55.932;2023-10-13T08:58:47;99989.28;;;6.70;63.85
78932;BME280;68331;53.362;55.932;2023-10-13T09:01:24;99989.28;;;6.70;64.01
78932;BME280;68331;53.362;55.932;2023-10-13T09:04:00;99989.25;;;6.72;64.08
78932;BME280;68331;53.362;55.932;2023-10-13T09:12:16;99985.91;;;6.61;65.79
78932;BME280;68331;53.362;55.932;2023-10-13T09:14:54;99975.47;;;6.56;66.43
78932;BME280;68331;53.362;55.932;2023-10-13T09:17:27;99967.69;;;6.51;66.57
78932;BME280;68331;53.362;55.932;2023-10-13T09:20:04;99963.34;;;6.49;66.31
78932;BME280;68331;53.362;55.932;2023-10-13T09:22:51;99963.31;;;6.52;66.28
78932;BME280;68331;53.362;55.932;2023-10-13T09:25:35;99955.41;;;6.53;66.35
78932;BME280;68331;53.362;55.932;2023-10-13T09:28:12;99965.75;;;6.64;66.29
78932;BME280;68331;53.362;55.932;2023-10-13T09:30:45;99949.13;;;6.65;65.90
78932;BME280;68331;53.362;55.932;2023-10-13T09:33:11;99959.53;;;6.70;65.66
78932;BME280;68331;53.362;55.932;2023-10-13T09:35:46;99947.31;;;6.70;65.17
78932;BME280;68331;53.362;55.932;2023-10-13T09:38:16;99942.94;;;6.71;65.79
78932;BME280;68331;53.362;55.932;2023-10-13T09:40:43;99947.38;;;6.67;66.27
78932;BME280;68331;53.362;55.932;2023-10-13T09:43:19;99955.38;;;6.57;68.12
78932;BME280;68331;53.362;55.932;2023-10-13T09:45:48;99939.78;;;6.46;69.30
78932;BME280;68331;53.362;55.932;2023-10-13T09:48:35;99942.50;;;6.40;70.64
78932;BME280;68331;53.362;55.932;2023-10-13T09:51:03;99932.13;;;6.32;70.65
78932;BME280;68331;53.362;55.932;2023-10-13T09:53:35;99934.75;;;6.32;71.00
78932;BME280;68331;53.362;55.932;2023-10-13T10:01:38;99936.22;;;6.51;70.38
78932;BME280;68331;53.362;55.932;2023-10-13T10:04:17;99940.50;;;6.59;70.35
78932;BME280;68331;53.362;55.932;2023-10-13T10:06:59;99937.78;;;6.63;69.61
78932;BME280;68331;53.362;55.932;2023-10-13T10:09:30;99930.75;;;6.68;69.55
78932;BME280;68331;53.362;55.932;2023-10-13T10:12:23;99928.88;;;6.77;68.92
78932;BME280;68331;53.362;55.932;2023-10-13T10:15:24;99933.19;;;6.81;68.86
78932;BME280;68331;53.362;55.932;2023-10-13T10:18:23;99927.94;;;6.79;69.06
78932;BME280;68331;53.362;55.932;2023-10-13T10:21:03;99930.63;;;6.76;69.28
78932;BME280;68331;53.362;55.932;2023-10-13T10:23:33;99929.78;;;6.72;69.61
78932;BME280;68331;53.362;55.932;2023-10-13T10:26:12;99924.50;;;6.75;69.61
78932;BME280;68331;53.362;55.932;2023-10-13T10:28:47;99928.84;;;6.80;69.04
78932;BME280;68331;53.362;55.932;2023-10-13T10:31:13;99919.13;;;6.86;69.16
78932;BME280;68331;53.362;55.932;2023-10-13T10:33:47;99917.41;;;6.84;69.22
78932;BME280;68331;53.362;55.932;2023-10-13T10:36:28;99920.03;;;6.82;69.83
78932;BME280;68331;53.362;55.932;2023-10-13T10:38:56;99909.53;;;6.84;70.13
78932;BME280;68331;53.362;55.932;2023-10-13T10:41:28;99893.84;;;6.79;70.16
78932;BME280;68331;53.362;55.932;2023-10-13T10:44:13;99898.09;;;6.89;70.05
78932;BME280;68331;53.362;55.932;2023-10-13T10:46:47;99911.97;;;6.96;69.56
78932;BME280;68331;53.362;55.932;2023-10-13T10:49:26;99900.50;;;7.02;69.29
78932;BME280;68331;53.362;55.932;2023-10-13T10:51:59;99903.88;;;7.08;69.02
78932;BME280;68331;53.362;55.932;2023-10-13T10:54:32;99902.97;;;7.11;69.13
78932;BME280;68331;53.362;55.932;2023-10-13T10:56:58;99901.19;;;7.13;69.24
78932;BME280;68331;53.362;55.932;2023-10-13T10:59:38;99890.81;;;7.07;69.23
78932;BME280;68331;53.362;55.932;2023-10-13T11:02:04;99904.66;;;7.15;68.69
78932;BME280;68331;53.362;55.932;2023-10-13T11:04:33;99901.09;;;7.19;68.48
78932;BME280;68331;53.362;55.932;2023-10-13T11:07:23;99898.44;;;7.20;68.29
78932;BME280;68331;53.362;55.932;2023-10-13T11:09:50;99898.44;;;7.20;68.13
78932;BME280;68331;53.362;55.932;2023-10-13T11:12:19;99893.19;;;7.20;68.40
78932;BME280;68331;53.362;55.932;2023-10-13T11:15:03;99887.94;;;7.20;68.43
78932;BME280;68331;53.362;55.932;2023-10-13T11:17:41;99885.31;;;7.20;68.47
78932;BME280;68331;53.362;55.932;2023-10-13T11:20:12;99881.91;;;7.15;68.47
78932;BME280;68331;53.362;55.932;2023-10-13T11:22:48;99881.88;;;7.17;68.79
78932;BME280;68331;53.362;55.932;2023-10-13T11:25:26;99876.63;;;7.18;68.54
78932;BME280;68331;53.362;55.932;2023-10-13T11:27:56;99864.34;;;7.19;68.28
78932;BME280;68331;53.362;55.932;2023-10-13T11:30:25;99882.63;;;7.23;68.39
78932;BME280;68331;53.362;55.932;2023-10-13T11:33:02;99885.25;;;7.25;68.29
78932;BME280;68331;53.362;55.932;2023-10-13T11:35:36;99885.19;;;7.27;68.47
78932;BME280;68331;53.362;55.932;2023-10-13T11:38:23;99895.75;;;7.23;68.89
78932;BME280;68331;53.362;55.932;2023-10-13T11:40:58;99895.84;;;7.17;69.72
78932;BME280;68331;53.362;55.932;2023-10-13T11:43:38;99891.59;;;7.12;70.62
78932;BME280;68331;53.362;55.932;2023-10-13T11:46:13;99892.56;;;7.05;71.09
78932;BME280;68331;53.362;55.932;2023-10-13T11:49:08;99890.88;;;7.02;71.47
78932;BME280;68331;53.362;55.932;2023-10-13T11:51:48;99882.13;;;7.03;71.95
78932;BME280;68331;53.362;55.932;2023-10-13T11:54:16;99891.72;;;7.04;71.83
78932;BME280;68331;53.362;55.932;2023-10-13T11:56:47;99882.03;;;7.09;71.32
78932;BME280;68331;53.362;55.932;2023-10-13T11:59:13;99886.31;;;7.15;70.71
78932;BME280;68331;53.362;55.932;2023-10-13T12:01:50;99872.28;;;7.16;70.15
78932;BME280;68331;53.362;55.932;2023-10-13T12:04:35;99867.03;;;7.16;70.10
78932;BME280;68331;53.362;55.932;2023-10-13T12:07:39;99865.16;;;7.21;69.36
78932;BME280;68331;53.362;55.932;2023-10-13T12:10:11;99861.56;;;7.28;69.01
78932;BME280;68331;53.362;55.932;2023-10-13T12:12:57;99859.75;;;7.32;68.66
78932;BME280;68331;53.362;55.932;2023-10-13T12:15:33;99862.31;;;7.35;68.16
78932;BME280;68331;53.362;55.932;2023-10-13T12:18:25;99857.06;;;7.35;68.02
78932;BME280;68331;53.362;55.932;2023-10-13T12:20:53;99857.94;;;7.35;68.09
78932;BME280;68331;53.362;55.932;2023-10-13T12:23:19;99859.72;;;7.33;67.79
78932;BME280;68331;53.362;55.932;2023-10-13T12:25:50;99858.88;;;7.31;67.95
78932;BME280;68331;53.362;55.932;2023-10-13T12:28:32;99868.59;;;7.28;68.07
78932;BME280;68331;53.362;55.932;2023-10-13T12:31:04;99873.91;;;7.23;68.24
78932;BME280;68331;53.362;55.932;2023-10-13T12:33:34;99861.72;;;7.19;68.59
78932;BME280;68331;53.362;55.932;2023-10-13T12:36:03;99854.78;;;7.16;68.70
78932;BME280;68331;53.362;55.932;2023-10-13T12:38:34;99844.38;;;7.10;69.46
78932;BME280;68331;53.362;55.932;2023-10-13T12:41:16;99856.69;;;7.07;69.85
78932;BME280;68331;53.362;55.932;2023-10-13T12:44:02;99857.56;;;7.07;69.70
78932;BME280;68331;53.362;55.932;2023-10-13T12:46:46;99834.09;;;6.99;69.44
78932;BME280;68331;53.362;55.932;2023-10-13T12:49:35;99854.94;;;7.09;69.50
78932;BME280;68331;53.362;55.932;2023-10-13T12:52:13;99861.03;;;7.09;69.21
78932;BME280;68331;53.362;55.932;2023-10-13T12:54:43;99856.53;;;7.14;68.92
78932;BME280;68331;53.362;55.932;2023-10-13T12:57:32;99848.63;;;7.17;68.60
78932;BME280;68331;53.362;55.932;2023-10-13T12:59:58;99848.56;;;7.20;68.10
78932;BME280;68331;53.362;55.932;2023-10-13T13:02:25;99845.88;;;7.25;67.59
78932;BME280;68331;53.362;55.932;2023-10-13T13:04:52;99846.69;;;7.29;66.94
78932;BME280;68331;53.362;55.932;2023-10-13T13:07:54;99838.69;;;7.35;65.84
78932;BME280;68331;53.362;55.932;2023-10-13T13:10:20;99839.50;;;7.38;65.38
78932;BME280;68331;53.362;55.932;2023-10-13T13:13:02;99857.81;;;7.41;65.29
78932;BME280;68331;53.362;55.932;2023-10-13T13:15:29;99857.00;;;7.38;65.33
78932;BME280;68331;53.362;55.932;2023-10-13T13:17:55;99871.06;;;7.35;65.73
78932;BME280;68331;53.362;55.932;2023-10-13T13:20:21;99869.38;;;7.31;65.96
78932;BME280;68331;53.362;55.932;2023-10-13T13:22:56;99873.94;;;7.21;66.57
78932;BME280;68331;53.362;55.932;2023-10-13T13:25:28;99886.31;;;7.13;67.09
78932;BME280;68331;53.362;55.932;2023-10-13T13:27:57;99878.63;;;7.03;68.35
78932;BME280;68331;53.362;55.932;2023-10-13T13:30:26;99874.44;;;6.91;69.48
78932;BME280;68331;53.362;55.932;2023-10-13T13:32:59;99864.97;;;6.84;69.96
78932;BME280;68331;53.362;55.932;2023-10-13T13:35:30;99868.59;;;6.75;70.70
78932;BME280;68331;53.362;55.932;2023-10-13T13:38:04;99883.59;;;6.65;71.53
78932;BME280;68331;53.362;55.932;2023-10-13T13:40:42;99885.41;;;6.62;71.96
78932;BME280;68331;53.362;55.932;2023-10-13T13:43:15;99889.84;;;6.57;72.43
78932;BME280;68331;53.362;55.932;2023-10-13T13:46:00;99897.72;;;6.55;72.89
78932;BME280;68331;53.362;55.932;2023-10-13T13:48:29;99905.66;;;6.50;73.45
78932;BME280;68331;53.362;55.932;2023-10-13T13:50:56;99897.09;;;6.39;73.88